• Join FlightAware (Why Join?)
  • Login
  • US Flag 
10:35AM EDT


 

Airport Tracker/Info


-or-


 

Live Flight TrackerFlight Track Log ✈ AWE479 ✈ 02-May-2013 ✈ KCLT - KDEN

Flight Track Log - Related Links

Times and Time Zones

All times are in EDT time to prevent confusion due to time zone crossing. See the AWE479 flight status page for this flight to view local times or setup timezone preferences in your user account.

Time Position Orientation Groundspeed Altitude Reporting Facility
EDT Latitude Longitude Course Direction KTS MPH feet Rate Location/Type
07:58AM 35.2470 -80.9590 333° Northwest 188 216 2,200  Level FlightAware
07:59AM 35.2590 -80.9700 323° Northwest 213 245 2,500 1,020 Climbing FlightAware
07:59AM 35.2800 -80.9920 319° Northwest 251 289 2,900 1,200 Climbing FlightAware
07:59AM 35.2900 -81.0070 309° West 264 304 3,300 1,980 Climbing FlightAware
08:00AM 35.2940 -81.0300 282° West 270 311 3,900 2,040 Climbing FlightAware
08:00AM 35.2910 -81.0540 261° West 280 322 4,500 2,640 Climbing FlightAware
08:00AM 35.2810 -81.0960 254° West 280 322 5,900 2,040 Climbing FlightAware
08:01AM 35.2610 -81.1750 253° West 280 322 7,100 2,820 Climbing FlightAware
08:02AM 35.2422 -81.2492 253° West 294 338 10,300 2,760 Climbing Atlanta Center
08:03AM 35.2153 -81.3567 253° West 311 358 11,900 1,860 Climbing Atlanta Center
08:09AM 35.0978 -82.1566 253° West 423 487 23,200 1,860 Climbing FlightAware ADS-B
08:09AM 35.0922 -82.2269 264° West 422 486 24,100 1,800 Climbing FlightAware ADS-B
08:09AM 35.0918 -82.2505 269° West 422 486 24,400 1,980 Climbing FlightAware ADS-B
08:10AM 35.0937 -82.2758 275° West 421 484 24,800 2,280 Climbing FlightAware ADS-B
08:10AM 35.0965 -82.2938 281° West 420 483 25,100 2,040 Climbing FlightAware ADS-B
08:10AM 35.1136 -82.3619 287° West 415 478 26,100 1,440 Climbing FlightAware ADS-B
08:11AM 35.1315 -82.4320 287° West 423 487 26,600 660 Climbing FlightAware ADS-B
08:11AM 35.1497 -82.5032 287° West 436 502 26,800 420 Climbing FlightAware ADS-B
08:12AM 35.1714 -82.5881 287° West 446 513 27,100 540 Climbing FlightAware ADS-B
08:13AM 35.2014 -82.7061 287° West 463 533 27,600 660 Climbing FlightAware ADS-B
08:13AM 35.2207 -82.7819 287° West 469 540 28,000 960 Climbing FlightAware ADS-B
08:14AM 35.2409 -82.8620 287° West 470 541 28,600 1,200 Climbing FlightAware ADS-B
08:14AM 35.2619 -82.9448 287° West 468 539 29,300 1,380 Climbing FlightAware ADS-B
08:15AM 35.2814 -83.0222 287° West 461 531 30,100 1,260 Climbing FlightAware ADS-B
08:15AM 35.3003 -83.0974 287° West 464 534 30,600 960 Climbing FlightAware ADS-B
08:16AM 35.3197 -83.1747 287° West 463 533 31,100 900 Climbing FlightAware ADS-B
08:16AM 35.3399 -83.2557 287° West 465 535 31,600 960 Climbing FlightAware ADS-B
08:17AM 35.3588 -83.3319 287° West 464 534 32,100 1,080 Climbing FlightAware ADS-B
08:17AM 35.3799 -83.4170 287° West 464 534 32,800 1,200 Climbing FlightAware ADS-B
08:18AM 35.3999 -83.4979 287° West 454 522 33,500 1,080 Climbing FlightAware ADS-B
08:18AM 35.4182 -83.5719 287° West 446 513 34,000 480 Climbing FlightAware ADS-B
08:19AM 35.4360 -83.6449 287° West 442 509 34,000  Level FlightAware ADS-B
08:20AM 35.4542 -83.7189 287° West 445 512 34,000  Level FlightAware ADS-B
08:20AM 35.4733 -83.7976 287° West 447 514 34,000  Level FlightAware ADS-B
08:21AM 35.4912 -83.8707 287° West 448 516 34,000  Level FlightAware ADS-B
08:21AM 35.5098 -83.9477 287° West 449 517 34,000  Level FlightAware ADS-B
08:22AM 35.5279 -84.0223 287° West 450 518 34,000  Level FlightAware ADS-B
08:22AM 35.5458 -84.0965 287° West 451 519 34,000  Level FlightAware ADS-B
08:23AM 35.5637 -84.1712 286° West 451 519 34,000  Level FlightAware ADS-B
08:23AM 35.5816 -84.2456 286° West 452 520 34,000 240 Level FlightAware ADS-B
08:24AM 35.5994 -84.3202 286° West 452 520 34,300 540 Climbing FlightAware ADS-B
08:24AM 35.6171 -84.3945 286° West 453 521 34,600 780 Climbing FlightAware ADS-B
08:25AM 35.6346 -84.4682 286° West 448 516 35,100 960 Climbing FlightAware ADS-B
08:25AM 35.6524 -84.5432 286° West 442 509 35,600 660 Climbing FlightAware ADS-B
08:26AM 35.6696 -84.6165 286° West 446 513 35,800 360 Climbing FlightAware ADS-B
08:26AM 35.6872 -84.6907 286° West 444 511 36,000 120 Climbing FlightAware ADS-B
08:27AM 35.7079 -84.7788 286° West 439 505 36,000  Level FlightAware ADS-B
08:27AM 35.7247 -84.8505 286° West 438 504 36,000  Level FlightAware ADS-B
08:28AM 35.7421 -84.9255 286° West 441 507 36,000  Level FlightAware ADS-B
08:28AM 35.7591 -84.9982 286° West 442 509 36,000  Level FlightAware ADS-B
08:29AM 35.7788 -85.0830 286° West 442 509 36,000  Level FlightAware ADS-B
08:29AM 35.7966 -85.1602 286° West 443 510 36,000  Level FlightAware ADS-B
08:30AM 35.8134 -85.2334 286° West 443 510 36,000  Level FlightAware ADS-B
08:31AM 35.8340 -85.3226 286° West 443 510 36,000  Level FlightAware ADS-B
08:31AM 35.8508 -85.3961 286° West 440 506 36,000  Level FlightAware ADS-B
08:32AM 35.8695 -85.4782 286° West 442 509 36,000  Level FlightAware ADS-B
08:32AM 35.8861 -85.5511 286° West 441 507 36,000  Level FlightAware ADS-B
08:33AM 35.9037 -85.6291 286° West 441 507 36,000  Level FlightAware ADS-B
08:33AM 35.9203 -85.7022 286° West 441 507 36,000  Level FlightAware ADS-B
08:34AM 35.9368 -85.7756 286° West 441 507 36,000  Level FlightAware ADS-B
08:35AM 35.9650 -85.9000 286° West 441 507 36,000  Level FlightAware
08:35AM 35.9735 -85.9393 285° West 442 509 36,000  Level FlightAware ADS-B
08:35AM 35.9901 -86.0136 285° West 441 507 36,000  Level FlightAware ADS-B
08:36AM 35.9991 -86.0525 286° West 440 506 36,000 120 Level FlightAware ADS-B
08:36AM 36.0263 -86.1297 294° West 439 505 36,100  Climbing FlightAware ADS-B
08:37AM 36.0530 -86.1972 296° West 437 503 36,000 -120 Descending FlightAware ADS-B
08:37AM 36.0817 -86.2704 296° West 436 502 36,000  Level FlightAware ADS-B
08:38AM 36.1084 -86.3387 296° West 435 501 36,000  Level FlightAware ADS-B
08:38AM 36.1361 -86.4089 296° West 433 498 36,000  Level FlightAware ADS-B
08:39AM 36.1626 -86.4762 296° West 433 498 36,000  Level FlightAware ADS-B
08:39AM 36.1743 -86.5062 296° West 434 499 36,000  Level FlightAware ADS-B
08:39AM 36.1924 -86.5646 291° West 433 498 36,000  Level FlightAware ADS-B
08:40AM 36.2150 -86.6770 284° West 433 498 36,000  Level FlightAware
08:40AM 36.2194 -86.7033 282° West 433 498 36,000  Level FlightAware ADS-B
08:41AM 36.2320 -86.7740 282° West 434 499 36,000  Level FlightAware
08:42AM 36.2530 -86.8850 283° West 434 499 36,000 60 Level FlightAware
08:42AM 36.2700 -86.9820 282° West 434 499 36,100  Climbing FlightAware
08:43AM 36.2900 -87.0890 283° West 434 499 36,000 -120 Descending FlightAware
08:44AM 36.3070 -87.1870 282° West 434 499 36,000  Level FlightAware
08:44AM 36.3270 -87.2990 283° West 433 498 36,000  Level FlightAware
08:45AM 36.3440 -87.3930 283° West 432 497 36,000  Level FlightAware
08:46AM 36.3610 -87.4910 282° West 431 496 36,000  Level FlightAware
08:46AM 36.3780 -87.5880 282° West 432 497 36,000  Level FlightAware
08:47AM 36.3970 -87.6940 283° West 433 498 36,000  Level FlightAware
08:48AM 36.4170 -87.8070 282° West 435 501 36,000  Level FlightAware
08:49AM 36.4340 -87.9050 282° West 436 502 36,000  Level FlightAware
08:49AM 36.4510 -88.0020 282° West 438 504 36,000  Level FlightAware
08:50AM 36.4690 -88.1120 282° West 441 507 36,000  Level FlightAware
08:51AM 36.4860 -88.2100 282° West 443 510 36,000  Level FlightAware
08:51AM 36.5060 -88.3250 282° West 444 511 36,000  Level FlightAware
08:52AM 36.5180 -88.4010 281° West 445 512 36,000  Level FlightAware
08:52AM 36.5330 -88.4850 283° West 445 512 36,000  Level FlightAware
08:53AM 36.5520 -88.6000 282° West 446 513 36,000  Level FlightAware
08:54AM 36.5700 -88.7110 281° West 448 516 36,000  Level FlightAware
08:55AM 36.5870 -88.8110 282° West 447 514 36,000  Level FlightAware
08:55AM 36.6030 -88.9110 281° West 450 518 36,000  Level FlightAware
08:56AM 36.6190 -89.0160 281° West 449 517 36,000  Level FlightAware
08:57AM 36.6370 -89.1160 283° West 452 520 36,000  Level FlightAware
08:57AM 36.6570 -89.2410 281° West 452 520 36,000  Level FlightAware
08:58AM 36.6780 -89.3740 281° West 453 521 36,000  Level FlightAware
08:59AM 36.6880 -89.4390 281° West 453 521 36,000  Level FlightAware
09:00AM 36.7050 -89.5490 281° West 453 521 36,000  Level FlightAware
09:00AM 36.7180 -89.6360 281° West 453 521 36,000  Level FlightAware
09:01AM 36.7350 -89.7450 281° West 453 521 36,000  Level FlightAware
09:02AM 36.7490 -89.8320 281° West 453 521 36,000  Level FlightAware
09:03AM 36.7630 -89.9190 281° West 453 521 36,000  Level FlightAware
09:03AM 36.7760 -90.0070 280° West 453 521 36,000  Level FlightAware
09:04AM 36.7900 -90.0940 281° West 453 521 36,000  Level FlightAware
09:05AM 36.8030 -90.1820 280° West 453 521 36,000  Level FlightAware
09:05AM 36.8200 -90.2910 281° West 453 521 36,000  Level FlightAware
09:06AM 36.8340 -90.3780 281° West 453 521 36,000  Level FlightAware
09:07AM 36.8470 -90.4660 280° West 453 521 36,000  Level FlightAware
09:07AM 36.8610 -90.5530 281° West 453 521 36,000  Level FlightAware
09:08AM 36.8981 -90.8119 281° West 437 503 36,000  Level Kansas City Center
09:09AM 36.9200 -90.9642 280° West 443 510 36,000  Level Kansas City Center
09:10AM 36.9417 -91.1167 280° West 445 512 36,000  Level Kansas City Center
09:11AM 36.9639 -91.2722 280° West 449 517 36,000  Level Kansas City Center
09:12AM 36.9861 -91.4294 280° West 452 520 36,000  Level Kansas City Center
09:13AM 37.0081 -91.5825 280° West 449 517 36,100  Climbing Kansas City Center
09:14AM 37.0289 -91.7358 280° West 445 512 36,000 -60 Descending Kansas City Center
09:15AM 37.0483 -91.8892 279° West 444 511 36,000 -60 Level Kansas City Center
09:16AM 37.0739 -92.0678 280° West 436 502 35,900  Descending Kansas City Center
09:17AM 37.0953 -92.2206 280° West 439 505 36,000  Climbing Kansas City Center
09:18AM 37.1161 -92.3719 280° West 438 504 36,000  Level Kansas City Center
09:19AM 37.1353 -92.5231 279° West 436 502 36,100  Climbing Kansas City Center
09:20AM 37.1553 -92.6731 280° West 435 501 36,000 -60 Descending Kansas City Center
09:21AM 37.1747 -92.8214 279° West 430 495 36,000  Level Kansas City Center
09:22AM 37.1939 -92.9711 279° West 431 496 36,000  Level Kansas City Center
09:23AM 37.2122 -93.1186 279° West 426 490 36,000  Level Kansas City Center
09:24AM 37.2306 -93.2664 279° West 426 490 36,000  Level Kansas City Center
09:25AM 37.2492 -93.4128 279° West 424 488 36,000  Level Kansas City Center
09:26AM 37.2669 -93.5597 279° West 424 488 36,000  Level Kansas City Center
09:27AM 37.2842 -93.7067 278° West 423 487 36,000  Level Kansas City Center
09:28AM 37.3019 -93.8556 279° West 427 491 36,000  Level Kansas City Center
09:29AM 37.3236 -94.0358 279° West 431 496 36,000  Level Kansas City Center
09:35AM 37.4270 -94.9370 279° West 422 486 36,000  Level FlightAware
09:36AM 37.4370 -95.0380 277° West 422 486 36,000  Level FlightAware
09:37AM 37.4520 -95.1730 278° West 425 489 36,000  Level FlightAware
09:38AM 37.4600 -95.2570 277° West 425 489 36,000  Level FlightAware
09:39AM 37.4710 -95.3610 278° West 425 489 36,000  Level FlightAware
09:39AM 37.4790 -95.4450 277° West 425 489 36,000  Level FlightAware
09:40AM 37.4870 -95.5280 277° West 425 489 36,000  Level FlightAware
09:41AM 37.4950 -95.6120 277° West 425 489 36,000  Level FlightAware
09:41AM 37.5030 -95.6960 277° West 425 489 36,000  Level FlightAware
09:42AM 37.5130 -95.8000 277° West 425 489 36,000  Level FlightAware
09:43AM 37.5210 -95.8840 277° West 425 489 36,000  Level FlightAware
09:43AM 37.5300 -95.9680 278° West 425 489 36,000  Level FlightAware
09:44AM 37.5380 -96.0510 277° West 425 489 36,000  Level FlightAware
09:45AM 37.5460 -96.1350 277° West 425 489 36,000  Level FlightAware
09:46AM 37.5560 -96.2400 277° West 425 489 36,000  Level FlightAware
09:46AM 37.5640 -96.3230 277° West 425 489 36,000  Level FlightAware
09:47AM 37.6010 -96.6310 279° West 36,000  Level FlightAware
09:48AM 37.6180 -96.8140 277° West 412 474 36,000  Level FlightAware
09:49AM 37.6280 -96.9220 277° West 409 471 36,100  Climbing FlightAware
09:50AM 37.6370 -97.0150 277° West 408 470 36,000 -120 Descending FlightAware
09:50AM 37.6470 -97.1220 277° West 407 468 36,000  Level FlightAware
09:51AM 37.6550 -97.2150 276° West 405 466 36,000  Level FlightAware
09:52AM 37.6640 -97.3090 277° West 404 465 36,000  Level FlightAware
09:53AM 37.6730 -97.4090 277° West 404 465 36,000  Level FlightAware
09:53AM 37.6810 -97.5070 276° West 403 464 36,000  Level FlightAware
09:54AM 37.6900 -97.6020 277° West 404 465 36,000  Level FlightAware
09:55AM 37.6990 -97.7060 276° West 403 464 36,000  Level FlightAware
09:55AM 37.7070 -97.7980 276° West 403 464 36,000  Level FlightAware
09:56AM 37.7150 -97.9040 275° West 403 464 36,000  Level FlightAware
09:57AM 37.7230 -97.9990 276° West 404 465 36,000  Level FlightAware
09:57AM 37.7320 -98.1040 276° West 404 465 36,000  Level FlightAware
09:58AM 37.7400 -98.1970 276° West 405 466 36,000  Level FlightAware
09:59AM 37.7460 -98.2690 276° West 405 466 36,000  Level FlightAware
10:00AM 37.7520 -98.3470 276° West 406 467 36,000  Level FlightAware
10:00AM 37.7660 -98.5250 276° West 409 471 36,000  Level FlightAware
10:01AM 37.7770 -98.6570 276° West 410 472 36,000  Level FlightAware
10:02AM 37.7840 -98.7460 276° West 410 472 36,000  Level FlightAware
10:03AM 37.7910 -98.8270 276° West 410 472 36,000  Level FlightAware
10:03AM 37.7970 -98.9080 275° West 410 472 36,000 -540 Level FlightAware
10:05AM 37.8150 -99.1580 275° West 404 465 34,800 -840 Descending FlightAware
10:06AM 37.8150 -99.1580 275° West 404 465 34,000 -540 Descending FlightAware
10:07AM 37.8220 -99.2380 276° West 404 465 34,000  Level FlightAware
10:07AM 37.8280 -99.3180 275° West 404 465 34,000  Level FlightAware
10:08AM 37.8350 -99.3980 276° West 404 465 34,000  Level FlightAware
10:09AM 37.8430 -99.4980 276° West 404 465 34,000  Level FlightAware
10:09AM 37.8500 -99.5780 276° West 404 465 34,000  Level FlightAware
10:10AM 37.8570 -99.6580 276° West 404 465 34,000  Level FlightAware
10:11AM 37.8630 -99.7380 275° West 404 465 34,000  Level FlightAware
10:11AM 37.8700 -99.8180 276° West 404 465 34,000  Level FlightAware
10:12AM 37.8780 -99.9180 276° West 404 465 34,000  Level FlightAware
10:13AM 37.8850 -99.9980 276° West 404 465 34,000  Level FlightAware
10:14AM 37.8910 -100.0780 275° West 404 465 34,000  Level FlightAware
10:14AM 37.8980 -100.1580 276° West 404 465 34,000  Level FlightAware
10:15AM 37.9050 -100.2380 276° West 404 465 34,000 60 Level FlightAware
10:15AM 37.9139 -100.6300 276° West 407 468 34,100  Climbing Denver Center
10:15AM 37.9181 -100.6747 277° West 407 468 34,000 -120 Descending Kansas City Center
10:17AM 37.9550 -100.8233 288° West 401 461 34,000  Level Kansas City Center
10:17AM 37.9875 -100.9033 297° West 403 464 34,000  Level Denver Center
10:18AM 38.0417 -101.0453 296° West 403 464 34,000  Level Denver Center
10:19AM 38.0894 -101.1714 296° West 414 476 34,000  Level Denver Center
10:20AM 38.1456 -101.3167 296° West 412 474 34,000 -540 Level Denver Center
10:27AM 38.5330 -102.1300 296° West 413 475 30,000 -600 Descending FlightAware ADS-B
10:27AM 38.5638 -102.1930 302° West 415 478 30,000  Level FlightAware ADS-B
10:28AM 38.5948 -102.2560 302° West 418 481 30,000  Level FlightAware ADS-B
10:28AM 38.6264 -102.3210 302° West 421 484 30,000  Level FlightAware ADS-B
10:29AM 38.6576 -102.3850 302° West 418 481 30,000  Level FlightAware ADS-B
10:29AM 38.6884 -102.4480 302° West 418 481 30,000  Level FlightAware ADS-B
10:30AM 38.7190 -102.5110 302° West 419 482 30,000  Level FlightAware ADS-B
10:30AM 38.7502 -102.5750 302° West 418 481 30,000  Level FlightAware ADS-B
10:31AM 38.7811 -102.6390 302° West 417 480 30,000  Level FlightAware ADS-B
10:31AM 38.8119 -102.7030 302° West 418 481 30,000  Level FlightAware ADS-B
10:32AM 38.8425 -102.7660 302° West 414 476 30,000  Level FlightAware ADS-B
10:32AM 38.8731 -102.8300 302° West 411 473 30,000  Level FlightAware ADS-B
10:33AM 38.9032 -102.8920 302° West 412 474 30,000  Level FlightAware ADS-B
10:33AM 38.9353 -102.9590 302° West 412 474 30,000 -120 Level FlightAware ADS-B
10:34AM 38.9660 -103.0240 301° West 410 472 29,900 -540 Descending FlightAware ADS-B
10:34AM 38.9958 -103.0860 302° West 409 471 29,500 -900 Descending FlightAware ADS-B
10:35AM 39.0255 -103.1480 302° West 403 464 29,000 -1,200 Descending FlightAware ADS-B
10:35AM 39.0547 -103.2100 301° West 399 459 28,300 -1,800 Descending FlightAware ADS-B
10:36AM 39.0833 -103.2700 302° West 392 451 27,200 -2,220 Descending FlightAware ADS-B
10:36AM 39.1118 -103.3300 301° West 386 444 26,100 -2,100 Descending FlightAware ADS-B
10:37AM 39.1401 -103.3900 301° West 379 436 25,100 -2,100 Descending FlightAware ADS-B
10:37AM 39.1675 -103.4480 301° West 372 428 24,000 -2,100 Descending FlightAware ADS-B
10:38AM 39.1941 -103.5050 301° West 366 421 23,000 -1,980 Descending FlightAware ADS-B
10:38AM 39.2206 -103.5610 301° West 358 412 22,000 -1,920 Descending FlightAware ADS-B
10:39AM 39.2463 -103.6160 301° West 351 404 21,100 -1,920 Descending FlightAware ADS-B
10:39AM 39.2714 -103.6690 301° West 346 398 20,100 -1,980 Descending FlightAware ADS-B
10:40AM 39.2962 -103.7220 301° West 341 392 19,100 -1,980 Descending FlightAware ADS-B
10:40AM 39.3206 -103.7750 301° West 336 387 18,100 -1,920 Descending FlightAware ADS-B
10:41AM 39.3446 -103.8260 301° West 330 380 17,200 -1,320 Descending FlightAware ADS-B
10:41AM 39.3676 -103.8760 301° West 309 356 16,800 -840 Descending FlightAware ADS-B
10:42AM 39.3898 -103.9230 301° West 291 335 16,400 -660 Descending FlightAware ADS-B
10:42AM 39.3931 -103.9320 295° West 288 331 16,400 -600 Level FlightAware ADS-B
10:42AM 39.3951 -103.9400 288° West 287 330 16,300 -1,380 Descending FlightAware ADS-B
10:42AM 39.3965 -103.9470 285° West 287 330 16,200 -1,200 Descending FlightAware ADS-B
10:43AM 39.3996 -104.0010 274° West 299 344 15,600 -1,320 Descending FlightAware ADS-B
10:43AM 39.4020 -104.0540 273° West 301 346 14,900 -1,320 Descending FlightAware ADS-B
10:44AM 39.4043 -104.1070 273° West 294 338 14,300 -1,320 Descending FlightAware ADS-B
10:44AM 39.4067 -104.1610 273° West 286 329 13,600 -1,320 Descending FlightAware ADS-B
10:45AM 39.4089 -104.2120 273° West 280 322 13,000 -1,200 Descending FlightAware ADS-B
10:45AM 39.4110 -104.2620 273° West 273 314 12,400 -1,500 Descending FlightAware ADS-B
10:46AM 39.4125 -104.2970 273° West 280 322 11,700 -1,860 Descending FlightAware ADS-B
10:46AM 39.4131 -104.3040 276° West 279 321 11,600 -1,500 Descending FlightAware ADS-B
10:46AM 39.4140 -104.3100 281° West 277 319 11,500 -1,740 Descending FlightAware ADS-B
10:46AM 39.4153 -104.3160 286° West 275 316 11,400 -1,500 Descending FlightAware ADS-B
10:46AM 39.4177 -104.3230 294° West 273 314 11,300 -600 Descending FlightAware ADS-B
10:46AM 39.4208 -104.3290 304° West 270 311 11,300 -1,080 Level FlightAware ADS-B
10:46AM 39.4424 -104.3680 306° West 261 300 10,700 -1,380 Descending FlightAware ADS-B
10:47AM 39.4622 -104.4030 306° West 260 299 10,000 -1,440 Descending FlightAware ADS-B
10:47AM 39.4733 -104.4220 307° West 257 296 9,700 -1,200 Descending FlightAware ADS-B
10:47AM 39.4844 -104.4410 307° West 253 291 9,400 -1,140 Descending FlightAware ADS-B
10:48AM 39.4926 -104.4540 309° West 250 288 9,200 -1,380 Descending FlightAware ADS-B
10:48AM 39.5037 -104.4720 309° West 252 290 8,800 -1,860 Descending FlightAware ADS-B
10:48AM 39.5113 -104.4850 307° West 255 293 8,400 -1,920 Descending FlightAware ADS-B
10:48AM 39.5152 -104.4910 310° West 256 295 8,300 -1,500 Descending FlightAware ADS-B
10:48AM 39.5185 -104.4950 317° Northwest 256 295 8,200 -1,740 Descending FlightAware ADS-B
10:48AM 39.5220 -104.4980 327° Northwest 255 293 8,100 -1,500 Descending FlightAware ADS-B
10:48AM 39.5262 -104.5010 331° Northwest 254 292 8,000 -1,200 Descending FlightAware ADS-B
10:49AM 39.5428 -104.5120 333° Northwest 249 287 7,700 -1,200 Descending FlightAware ADS-B
10:49AM 39.5585 -104.5220 334° Northwest 246 283 7,400 -1,200 Descending FlightAware ADS-B
10:49AM 39.5739 -104.5310 336° Northwest 245 282 7,100 -1,200 Descending FlightAware ADS-B
10:49AM 39.5892 -104.5410 333° Northwest 242 278 6,800 -1,200 Descending FlightAware ADS-B
10:50AM 39.6048 -104.5510 334° Northwest 240 276 6,500 -780 Descending FlightAware ADS-B
10:50AM 39.6207 -104.5610 334° Northwest 237 273 6,400 -240 Descending FlightAware ADS-B
10:50AM 39.6358 -104.5710 333° Northwest 242 278 6,400 -240 Level FlightAware ADS-B
10:50AM 39.6513 -104.5800 336° Northwest 243 280 6,300 -240 Descending FlightAware ADS-B
10:51AM 39.6671 -104.5900 334° Northwest 242 278 6,300  Level FlightAware ADS-B
10:51AM 39.6835 -104.6010 333° Northwest 242 278 6,300  Level FlightAware ADS-B
10:51AM 39.6988 -104.6110 333° Northwest 236 272 6,300  Level FlightAware ADS-B
10:51AM 39.7135 -104.6200 335° Northwest 219 252 6,300  Level FlightAware ADS-B
10:52AM 39.7280 -104.6290 334° Northwest 200 230 6,300 180 Level FlightAware ADS-B
10:52AM 39.7408 -104.6370 334° Northwest 190 219 6,400  Climbing FlightAware ADS-B
10:52AM 39.7462 -104.6400 337° Northwest 189 217 6,300 -480 Descending FlightAware ADS-B
10:52AM 39.7523 -104.6420 346° North 187 215 6,300  Level FlightAware ADS-B
10:52AM 39.7557 -104.6420 360° North 184 212 6,300 -600 Level FlightAware ADS-B
10:52AM 39.7606 -104.6420 360° North 178 205 6,200 -1,080 Descending FlightAware ADS-B
10:53AM 39.7746 -104.6420 360° North 169 194 5,900 -1,020 Descending FlightAware ADS-B
10:53AM 39.7800 -104.6420 360° North 159 183 5,800 -900 Descending FlightAware ADS-B
10:53AM 39.7900 -104.6420 360° North 152 175 5,600 -840 Descending FlightAware ADS-B
10:53AM 39.8007 -104.6420 360° North 150 173 5,400 -960 Descending FlightAware ADS-B
10:53AM 39.8073 -104.6420 360° North 150 173 5,200 -1,080 Descending FlightAware ADS-B
10:54AM 39.8127 -104.6420 360° North 151 174 5,100 -780 Descending FlightAware ADS-B
10:54AM 39.8182 -104.6420 360° North 151 174 5,000 -780 Descending FlightAware ADS-B